createdAt,value
2019-05-10T00:03:19.237Z,0.00
2019-05-10T00:06:28.062Z,2.00
2019-05-10T00:08:58.836Z,1.00
2019-05-10T00:12:07.541Z,1.00
2019-05-10T00:14:58.207Z,1.00
2019-05-10T00:20:34.788Z,1.00
2019-05-10T00:23:06.017Z,2.33
2019-05-10T00:25:56.921Z,1.00
2019-05-10T00:28:33.072Z,1.00
2019-05-10T00:33:55.266Z,1.00
2019-05-10T00:36:26.352Z,2.33
2019-05-10T00:38:58.411Z,1.00
2019-05-10T00:44:39.901Z,1.00
2019-05-10T00:47:31.168Z,1.80
2019-05-10T00:50:21.027Z,1.00
2019-05-10T00:55:44.416Z,1.00
2019-05-10T00:58:15.606Z,1.00
2019-05-10T01:00:47.576Z,1.80
2019-05-10T01:03:19.709Z,3.00
2019-05-10T01:05:50.850Z,2.33
2019-05-10T01:08:24.722Z,1.40
2019-05-10T01:10:55.848Z,1.00
2019-05-10T01:13:27.004Z,3.00
2019-05-10T01:15:58.985Z,3.00
2019-05-10T01:18:30.183Z,2.33
2019-05-10T01:21:20.790Z,3.00
2019-05-10T01:23:51.940Z,1.00
2019-05-10T01:29:13.294Z,1.67
2019-05-10T01:31:45.353Z,3.33
2019-05-10T01:34:35.571Z,3.00
2019-05-10T01:37:07.541Z,3.00
2019-05-10T01:43:00.493Z,4.00
2019-05-10T01:45:31.632Z,3.00
2019-05-10T01:48:03.029Z,4.00
2019-05-10T01:50:53.067Z,4.00
2019-05-10T01:53:24.365Z,4.00
2019-05-10T01:55:56.197Z,6.00
2019-05-10T01:58:46.365Z,3.33
2019-05-10T02:01:17.581Z,4.00
2019-05-10T02:03:49.662Z,5.20
2019-05-10T02:06:23.907Z,4.00
2019-05-10T02:08:55.352Z,4.00
2019-05-10T02:11:26.555Z,3.00
2019-05-10T02:13:57.759Z,3.67
2019-05-10T02:16:28.877Z,4.00
2019-05-10T02:19:00.111Z,3.33
2019-05-10T02:21:32.007Z,4.00
2019-05-10T02:24:03.216Z,4.67
2019-05-10T02:26:34.372Z,4.00
2019-05-10T02:29:26.154Z,5.33
2019-05-10T02:31:58.128Z,4.00
2019-05-10T02:34:28.303Z,4.67
2019-05-10T02:40:08.760Z,5.33
2019-05-10T02:42:40.754Z,5.75
2019-05-10T02:45:31.144Z,5.33
2019-05-10T02:48:02.280Z,4.33
2019-05-10T02:50:52.053Z,4.33
2019-05-10T02:53:23.255Z,4.33
2019-05-10T02:55:57.484Z,4.25
2019-05-10T02:58:47.468Z,4.33
2019-05-10T03:01:18.795Z,6.00
2019-05-10T03:04:09.268Z,5.75
2019-05-10T03:10:20.733Z,5.80
2019-05-10T03:13:02.892Z,4.25
2019-05-10T03:15:53.369Z,4.67
2019-05-10T03:18:37.392Z,4.33
2019-05-10T03:21:09.489Z,6.00
2019-05-10T03:26:50.693Z,6.00
2019-05-10T03:29:48.658Z,6.00
2019-05-10T03:32:09.811Z,5.00
2019-05-10T03:34:41.748Z,6.50
2019-05-10T03:37:51.979Z,7.33
2019-05-10T03:40:23.929Z,5.50
2019-05-10T03:42:54.266Z,6.00
2019-05-10T03:48:36.452Z,7.33
2019-05-10T03:53:57.593Z,7.33
2019-05-10T03:56:31.213Z,6.00
2019-05-10T03:59:22.187Z,6.00
2019-05-10T04:02:13.876Z,7.33
2019-05-10T04:07:26.922Z,5.00
2019-05-10T04:09:57.963Z,8.00
2019-05-10T04:12:28.855Z,6.00
2019-05-10T04:15:12.992Z,7.50
2019-05-10T04:17:38.016Z,7.33
2019-05-10T04:20:09.342Z,5.00
2019-05-10T04:22:40.432Z,8.33
2019-05-10T04:25:11.595Z,6.67
2019-05-10T04:27:42.691Z,8.00
2019-05-10T04:30:18.156Z,7.33
2019-05-10T04:33:08.233Z,4.33
2019-05-10T04:41:32.135Z,6.67
2019-05-10T04:44:02.431Z,8.00
2019-05-10T04:46:32.661Z,9.00
2019-05-10T04:49:22.482Z,7.00
2019-05-10T04:52:12.699Z,7.33
2019-05-10T04:55:02.614Z,8.67
2019-05-10T04:57:49.245Z,11.00
2019-05-10T05:00:25.519Z,9.00
2019-05-10T05:02:56.630Z,6.00
2019-05-10T05:05:45.853Z,8.33
2019-05-10T05:08:16.547Z,11.67
2019-05-10T05:13:56.090Z,8.00
2019-05-10T05:16:26.360Z,8.67
2019-05-10T05:18:56.719Z,9.00
2019-05-10T05:27:20.174Z,7.67
2019-05-10T05:29:53.187Z,10.33
2019-05-10T05:32:23.405Z,10.67
2019-05-10T05:45:38.396Z,9.00
2019-05-10T05:48:39.553Z,10.00
2019-05-10T05:50:59.514Z,8.33
2019-05-10T05:56:52.972Z,10.67
2019-05-10T06:02:24.855Z,9.00
2019-05-10T06:05:34.570Z,9.33
2019-05-10T06:08:21.252Z,7.00
2019-05-10T06:10:58.183Z,12.00
2019-05-10T06:13:29.336Z,10.00
2019-05-10T06:15:55.032Z,10.00
2019-05-10T06:18:47.204Z,10.00
2019-05-10T06:21:18.082Z,11.00
2019-05-10T06:26:58.217Z,8.00
2019-05-10T06:29:44.787Z,9.67
2019-05-10T06:32:15.284Z,10.67
2019-05-10T06:35:04.855Z,9.67
2019-05-10T06:43:07.106Z,8.00
2019-05-10T06:45:34.588Z,9.33
2019-05-10T06:48:44.188Z,9.00
2019-05-10T06:51:14.320Z,7.00
2019-05-10T06:54:05.887Z,7.00
2019-05-10T06:59:57.085Z,8.67
2019-05-10T07:02:32.193Z,7.67
2019-05-10T07:05:20.232Z,6.25
2019-05-10T07:07:52.812Z,7.00
2019-05-10T07:10:45.242Z,7.67
2019-05-10T07:13:54.639Z,8.00
2019-05-10T07:16:36.812Z,7.00
2019-05-10T07:21:52.561Z,8.00
2019-05-10T07:24:27.857Z,7.00
2019-05-10T07:39:49.347Z,4.75
2019-05-10T07:42:21.825Z,4.75
2019-05-10T07:48:08.307Z,6.00
2019-05-10T07:53:49.851Z,5.00
2019-05-10T07:56:51.880Z,5.00
2019-05-10T08:03:02.342Z,5.00
2019-05-10T08:05:39.248Z,8.00
2019-05-10T08:11:28.579Z,4.33
2019-05-10T08:16:42.860Z,5.00
2019-05-10T08:19:37.465Z,5.00
2019-05-10T08:22:25.500Z,4.00
2019-05-10T08:31:26.210Z,5.00
2019-05-10T08:36:57.676Z,5.00
2019-05-10T08:39:44.088Z,5.20
2019-05-10T08:42:40.149Z,4.80
2019-05-10T08:45:03.935Z,4.60
2019-05-10T08:50:57.116Z,4.00
2019-05-10T08:53:47.100Z,5.33
2019-05-10T08:56:23.487Z,5.00
2019-05-10T08:59:04.195Z,5.20
2019-05-10T09:04:50.203Z,5.00
2019-05-10T09:08:03.255Z,2.00
2019-05-10T09:11:11.862Z,3.33
2019-05-10T09:13:53.398Z,2.00
2019-05-10T09:16:29.175Z,2.00
2019-05-10T09:19:18.827Z,3.00
2019-05-10T09:24:48.319Z,4.20
2019-05-10T09:33:18.414Z,2.00
2019-05-10T09:35:52.345Z,2.00
2019-05-10T09:38:28.600Z,3.40
2019-05-10T09:40:59.602Z,3.80
2019-05-10T09:43:50.476Z,2.33
2019-05-10T09:46:27.645Z,3.00
2019-05-10T09:49:18.501Z,3.33
2019-05-10T09:51:55.056Z,2.00
2019-05-10T09:54:29.660Z,3.40
2019-05-10T10:00:38.025Z,2.00
2019-05-10T10:03:08.788Z,2.00
2019-05-10T10:05:43.399Z,3.00
2019-05-10T10:08:18.042Z,3.00
2019-05-10T10:10:52.408Z,2.00
2019-05-10T10:19:50.765Z,3.00
2019-05-10T10:22:30.817Z,2.67
2019-05-10T10:25:17.687Z,2.00
2019-05-10T10:27:44.592Z,2.00
2019-05-10T10:30:37.302Z,3.00
2019-05-10T10:33:29.646Z,2.00
2019-05-10T10:36:10.750Z,1.33
2019-05-10T10:42:17.689Z,1.00
2019-05-10T10:48:17.849Z,2.20
2019-05-10T10:50:55.573Z,2.00
2019-05-10T10:53:58.287Z,1.00
2019-05-10T10:57:09.853Z,1.00
2019-05-10T10:59:43.204Z,1.67
2019-05-10T11:02:31.415Z,1.00
2019-05-10T11:07:33.775Z,1.00
2019-05-10T11:10:21.587Z,1.00
2019-05-10T11:12:41.255Z,1.00
2019-05-10T11:28:12.488Z,1.00
2019-05-10T11:34:06.101Z,1.20
2019-05-10T11:39:45.131Z,1.00
2019-05-10T11:42:11.870Z,1.00
2019-05-10T11:44:49.965Z,2.00
2019-05-10T11:47:48.177Z,1.67
2019-05-10T11:50:34.912Z,1.00
2019-05-10T11:53:06.839Z,1.00
2019-05-10T11:55:39.765Z,1.00
2019-05-10T12:01:22.272Z,1.00
2019-05-10T12:03:54.336Z,1.80
2019-05-10T12:09:13.818Z,2.00
2019-05-10T12:11:52.292Z,1.80
2019-05-10T12:17:47.599Z,2.00
2019-05-10T12:20:51.576Z,2.00
2019-05-10T12:23:22.889Z,2.00
2019-05-10T12:28:41.173Z,1.00
2019-05-10T12:35:08.687Z,2.00
2019-05-10T12:40:45.828Z,2.00
2019-05-10T12:43:40.932Z,1.00
2019-05-10T12:49:17.061Z,1.00
2019-05-10T12:52:16.096Z,1.00
2019-05-10T12:54:50.415Z,1.40
2019-05-10T12:57:27.069Z,1.00
2019-05-10T12:59:59.447Z,1.00
2019-05-10T13:09:41.508Z,1.20
2019-05-10T13:12:11.633Z,0.20
2019-05-10T13:18:49.803Z,1.00
2019-05-10T13:27:11.041Z,1.00
2019-05-10T13:30:27.840Z,1.00
2019-05-10T13:41:33.106Z,1.00
2019-05-10T13:47:43.236Z,1.00
2019-05-10T14:03:44.494Z,1.00
2019-05-10T14:06:54.483Z,1.40
2019-05-10T14:19:01.195Z,1.40
2019-05-10T14:22:30.206Z,1.00
2019-05-10T14:24:52.179Z,2.00
2019-05-10T14:27:38.746Z,1.80
2019-05-10T14:30:17.965Z,1.40
2019-05-10T14:33:14.657Z,1.00
2019-05-10T14:36:07.733Z,1.60
2019-05-10T14:38:41.610Z,2.00
2019-05-10T14:41:17.281Z,2.00
2019-05-10T14:46:51.352Z,1.00
2019-05-10T14:50:04.020Z,1.00
2019-05-10T14:53:13.625Z,1.00
2019-05-10T14:59:08.370Z,1.00
2019-05-10T15:05:48.839Z,1.80
2019-05-10T15:08:49.829Z,1.00
2019-05-10T15:11:49.996Z,2.00
2019-05-10T15:14:22.071Z,1.20
2019-05-10T15:16:54.296Z,1.00
2019-05-10T15:19:30.785Z,2.00
2019-05-10T15:22:23.137Z,2.00
2019-05-10T15:28:17.692Z,1.40
2019-05-10T15:31:23.557Z,1.00
2019-05-10T15:42:36.351Z,1.00
2019-05-10T15:48:04.535Z,1.00
2019-05-10T15:50:41.180Z,1.00
2019-05-10T15:53:13.826Z,1.60
2019-05-10T15:56:25.009Z,1.00
2019-05-10T15:58:57.165Z,1.80
2019-05-10T16:02:07.149Z,1.00
2019-05-10T16:10:28.432Z,1.00
2019-05-10T16:13:23.250Z,1.00
2019-05-10T16:16:21.978Z,1.00
2019-05-10T16:18:55.988Z,1.00
2019-05-10T16:21:52.049Z,1.00
2019-05-10T16:24:26.136Z,0.00
2019-05-10T16:30:36.451Z,1.00
2019-05-10T16:36:49.148Z,1.60
2019-05-10T16:48:40.476Z,1.00
2019-05-10T16:54:28.462Z,1.00
2019-05-10T16:57:24.475Z,1.00
2019-05-10T17:07:13.047Z,1.60
2019-05-10T17:10:46.462Z,1.80
2019-05-10T17:17:00.007Z,0.80
2019-05-10T17:26:54.613Z,1.20
2019-05-10T17:33:23.392Z,1.00
2019-05-10T17:39:32.011Z,1.00
2019-05-10T17:55:55.601Z,1.00
2019-05-10T17:58:56.317Z,1.00
2019-05-10T18:08:10.579Z,1.00
2019-05-10T18:14:21.472Z,2.00
2019-05-10T18:17:32.787Z,2.00
2019-05-10T18:21:15.663Z,2.00
2019-05-10T18:27:06.757Z,1.00
2019-05-10T18:33:06.666Z,2.00
2019-05-10T18:35:52.792Z,2.00
2019-05-10T18:39:03.394Z,1.80
2019-05-10T18:42:06.168Z,1.67
2019-05-10T18:51:42.760Z,2.00
2019-05-10T18:57:59.662Z,2.00
2019-05-10T19:16:58.376Z,2.00
2019-05-10T19:19:42.122Z,2.40
2019-05-10T19:22:54.070Z,3.00
2019-05-10T19:28:49.323Z,2.00
2019-05-10T19:31:20.042Z,2.33
2019-05-10T19:33:57.249Z,3.00
2019-05-10T19:40:03.725Z,3.00
2019-05-10T19:46:39.265Z,5.00
2019-05-10T19:49:51.870Z,5.00
2019-05-10T19:52:49.397Z,3.33
2019-05-10T19:59:11.910Z,3.33
2019-05-10T20:04:29.802Z,2.40
2019-05-10T20:07:45.853Z,3.40
2019-05-10T20:10:23.730Z,3.00
2019-05-10T20:13:16.227Z,2.60
2019-05-10T20:16:20.179Z,3.00
2019-05-10T20:18:55.264Z,2.00
2019-05-10T20:22:11.794Z,2.60
2019-05-10T20:28:24.063Z,3.33
2019-05-10T20:31:31.391Z,3.20
2019-05-10T20:34:41.496Z,3.40
2019-05-10T20:37:16.010Z,3.00
2019-05-10T20:39:48.008Z,3.40
2019-05-10T20:42:20.274Z,3.40
2019-05-10T20:45:31.499Z,3.00
2019-05-10T20:48:02.647Z,3.33
2019-05-10T20:50:36.283Z,1.40
2019-05-10T20:53:08.367Z,2.00
2019-05-10T20:58:44.399Z,2.00
2019-05-10T21:04:12.074Z,3.00
2019-05-10T21:06:53.334Z,3.00
2019-05-10T21:09:44.176Z,3.00
2019-05-10T21:12:16.106Z,3.00
2019-05-10T21:14:59.816Z,3.00
2019-05-10T21:17:48.969Z,3.33
2019-05-10T21:24:21.424Z,3.33
2019-05-10T21:33:03.025Z,3.80
2019-05-10T21:35:39.866Z,5.40
2019-05-10T21:38:33.168Z,5.67
2019-05-10T21:44:07.246Z,5.00
2019-05-10T21:46:56.992Z,5.00
2019-05-10T21:49:59.257Z,3.33
2019-05-10T21:52:51.233Z,5.33
2019-05-10T21:55:13.015Z,5.00
2019-05-10T21:57:46.300Z,3.33
2019-05-10T22:09:12.133Z,5.00
2019-05-10T22:11:52.582Z,5.00
2019-05-10T22:14:23.460Z,5.00
2019-05-10T22:16:55.180Z,5.00
2019-05-10T22:19:26.239Z,4.33
2019-05-10T22:25:03.146Z,4.60
2019-05-10T22:27:52.884Z,5.00
2019-05-10T22:30:36.532Z,4.40
2019-05-10T22:33:25.429Z,4.00
2019-05-10T22:35:57.840Z,4.20
2019-05-10T22:39:05.329Z,4.00
2019-05-10T22:44:50.705Z,4.20
2019-05-10T22:50:56.781Z,4.00
2019-05-10T22:54:00.020Z,4.00
2019-05-10T22:56:40.779Z,2.00
2019-05-10T22:59:51.945Z,2.00
2019-05-10T23:02:36.237Z,2.00
2019-05-10T23:08:01.172Z,4.00
2019-05-10T23:13:42.675Z,5.00
2019-05-10T23:27:53.528Z,5.00
2019-05-10T23:30:45.926Z,4.00
2019-05-10T23:33:22.201Z,4.67
2019-05-10T23:38:50.294Z,5.00
2019-05-10T23:41:40.482Z,5.20
2019-05-10T23:46:55.369Z,4.67
2019-05-10T23:49:27.362Z,4.60
2019-05-10T23:52:37.632Z,5.00
2019-05-10T23:55:08.704Z,4.00
2019-05-10T23:57:41.780Z,5.00
